Time;durP1;ratioP1;P1;durP2;ratioP2;P2;SDS_P1;SDS_P2;PMS_P1;PMS_P2;Temp;Humidity;BMP_temperature;BMP_pressure;BME280_temperature;BME280_humidity;BME280_pressure;Samples;Min_cycle;Max_cycle;Signal;HPM_P1;HPM_P2
2021/03/26 00:00:53;;;;;;;96.12;46.05;;;;;;;5.28;58.65;100662.72;147792;1146;104546;-76
2021/03/26 00:03:57;;;;;;;105.80;51.48;;;;;;;5.40;58.89;100666.30;147755;1146;104543;-76
2021/03/26 00:07:01;;;;;;;100.75;49.80;;;;;;;5.51;59.50;100659.27;147706;1146;104481;-77
2021/03/26 00:10:08;;;;;;;101.57;52.27;;;;;;;5.61;58.90;100663.91;147674;1147;104897;-78
2021/03/26 00:13:11;;;;;;;99.47;51.73;;;;;;;5.67;59.20;100663.45;147733;1147;104453;-75
2021/03/26 00:16:14;;;;;;;100.92;52.15;;;;;;;5.71;59.48;100664.92;147731;1147;104944;-76
2021/03/26 00:19:18;;;;;;;103.58;53.87;;;;;;;5.74;59.62;100667.36;147363;1146;104604;-76
2021/03/26 00:22:21;;;;;;;93.70;49.27;;;;;;;5.75;59.52;100663.73;147515;1147;104476;-76
2021/03/26 00:25:24;;;;;;;93.07;50.15;;;;;;;5.77;59.30;100656.52;147549;1147;104466;-76
2021/03/26 00:28:28;;;;;;;99.13;51.02;;;;;;;5.78;59.87;100660.87;147805;1147;104485;-76
2021/03/26 00:31:31;;;;;;;94.40;48.70;;;;;;;5.77;59.81;100659.17;147717;1146;104639;-74
2021/03/26 00:34:34;;;;;;;91.53;49.40;;;;;;;5.79;59.40;100657.25;147446;1147;104569;-74
2021/03/26 00:37:38;;;;;;;89.70;46.68;;;;;;;5.80;59.71;100652.83;147727;1148;104473;-81
2021/03/26 00:40:41;;;;;;;90.53;46.87;;;;;;;5.79;60.26;100657.25;147720;1148;104541;-79
2021/03/26 00:43:44;;;;;;;90.17;48.17;;;;;;;5.81;60.27;100655.37;147622;1148;104479;-78
2021/03/26 00:46:47;;;;;;;84.25;44.20;;;;;;;5.81;60.25;100650.07;147595;1147;104757;-79
2021/03/26 00:49:51;;;;;;;85.60;46.70;;;;;;;5.81;59.47;100642.12;147660;1147;104456;-80
2021/03/26 00:52:54;;;;;;;88.93;47.03;;;;;;;5.78;60.41;100642.34;147541;1147;104601;-75
2021/03/26 00:55:57;;;;;;;116.00;66.12;;;;;;;5.67;59.90;100651.05;147529;1145;104963;-73
2021/03/26 00:59:03;;;;;;;106.80;57.90;;;;;;;5.67;60.73;100651.05;147574;1146;104472;-74
2021/03/26 01:02:07;;;;;;;122.67;56.58;;;;;;;5.69;60.61;100643.01;147731;1147;104840;-79
2021/03/26 01:05:15;;;;;;;96.72;50.05;;;;;;;5.74;60.63;100643.52;147796;1147;104649;-74
2021/03/26 01:08:18;;;;;;;91.28;45.17;;;;;;;5.84;60.95;100648.98;147647;1146;104541;-73
2021/03/26 01:11:26;;;;;;;87.83;45.77;;;;;;;5.89;60.21;100641.56;147765;1147;104914;-72
2021/03/26 01:14:29;;;;;;;89.10;46.50;;;;;;;5.96;60.13;100640.16;147766;1146;104580;-76
2021/03/26 01:17:33;;;;;;;89.72;47.13;;;;;;;5.98;60.44;100635.59;147747;1147;104822;-77
2021/03/26 01:20:38;;;;;;;92.45;50.17;;;;;;;6.05;60.15;100633.34;147688;1147;104560;-76
2021/03/26 01:23:45;;;;;;;86.57;47.15;;;;;;;6.10;61.14;100644.42;147746;1147;104511;-79
2021/03/26 01:26:48;;;;;;;88.42;47.50;;;;;;;6.14;60.16;100645.91;147783;1147;104975;-77
2021/03/26 01:30:09;;;;;;;87.00;46.73;;;;;;;6.16;60.61;100653.72;147669;1147;104474;-78
2021/03/26 01:33:14;;;;;;;79.35;43.92;;;;;;;6.19;60.51;100643.73;147746;1145;104614;-79
2021/03/26 01:36:18;;;;;;;87.00;47.33;;;;;;;6.21;61.33;100636.52;147628;1147;104527;-79
2021/03/26 01:39:21;;;;;;;89.77;48.87;;;;;;;6.23;61.20;100639.05;147627;1147;104555;-81
2021/03/26 01:42:34;;;;;;;89.72;49.03;;;;;;;6.24;60.65;100649.55;147699;1147;104525;-76
2021/03/26 01:45:38;;;;;;;76.67;44.33;;;;;;;6.21;60.56;100646.28;147670;1147;104473;-75
2021/03/26 01:48:45;;;;;;;76.15;42.75;;;;;;;6.20;61.31;100649.91;147703;1147;104641;-74
2021/03/26 01:51:50;;;;;;;80.85;43.70;;;;;;;6.17;61.16;100656.26;147778;1146;104599;-73
2021/03/26 01:54:54;;;;;;;83.37;45.27;;;;;;;6.09;60.97;100655.99;147736;1145;104439;-75
2021/03/26 01:57:58;;;;;;;89.60;49.60;;;;;;;5.98;61.16;100651.48;147727;1147;104551;-76
2021/03/26 02:01:10;;;;;;;78.78;44.08;;;;;;;5.90;60.62;100653.83;147688;1147;104517;-74
2021/03/26 02:04:24;;;;;;;90.40;45.45;;;;;;;5.80;60.92;100658.13;147742;1147;104567;-74
2021/03/26 02:07:28;;;;;;;85.27;44.43;;;;;;;5.76;61.30;100657.50;147770;1147;104556;-73
2021/03/26 02:10:31;;;;;;;74.37;41.30;;;;;;;5.74;61.24;100659.41;147564;1147;104455;-75
2021/03/26 02:13:37;;;;;;;79.47;43.02;;;;;;;5.71;60.82;100659.62;147649;1147;105001;-75
2021/03/26 02:16:48;;;;;;;84.03;44.67;;;;;;;5.68;60.50;100660.70;147689;1147;104547;-74
2021/03/26 02:20:36;;;;;;;84.80;45.05;;;;;;;5.64;61.00;100669.83;147540;1147;104551;-75
2021/03/26 02:23:45;;;;;;;77.60;42.43;;;;;;;5.60;61.21;100667.49;147619;1146;104507;-77
2021/03/26 02:26:53;;;;;;;78.20;43.65;;;;;;;5.59;61.21;100671.95;147740;1147;104492;-78
2021/03/26 02:29:58;;;;;;;76.45;42.10;;;;;;;5.57;60.66;100665.92;147784;1145;104495;-78
2021/03/26 02:33:20;;;;;;;83.10;43.83;;;;;;;5.48;61.05;100669.23;147767;1146;104538;-75
2021/03/26 02:36:41;;;;;;;85.32;44.45;;;;;;;5.41;60.82;100660.89;147698;1147;104667;-76
2021/03/26 02:39:48;;;;;;;78.40;44.03;;;;;;;5.35;60.75;100663.98;147583;1147;104487;-78
2021/03/26 02:43:02;;;;;;;82.87;45.00;;;;;;;5.29;60.85;100661.75;147743;1147;104572;-83
2021/03/26 02:46:14;;;;;;;82.30;44.67;;;;;;;5.25;61.01;100669.09;147743;1148;104937;-75
2021/03/26 02:49:19;;;;;;;;;;;;;;;5.20;61.23;100660.63;147389;1146;104499;-76
2021/03/26 02:52:36;;;;;;;79.07;41.92;;;;;;;5.19;61.09;100663.38;147497;1147;104641;-79
2021/03/26 02:55:48;;;;;;;83.85;43.75;;;;;;;5.17;60.96;100659.98;147744;1145;104547;-78
2021/03/26 02:59:02;;;;;;;83.72;44.90;;;;;;;5.16;60.77;100661.80;147479;1146;104545;-79
2021/03/26 03:02:08;;;;;;;75.17;41.75;;;;;;;5.17;61.18;100659.98;147564;1148;104860;-79
2021/03/26 03:05:28;;;;;;;74.20;40.63;;;;;;;5.17;61.16;100675.86;147750;1148;104493;-79
2021/03/26 03:08:35;;;;;;;76.95;41.65;;;;;;;5.17;61.04;100675.86;147723;1148;104703;-80
2021/03/26 03:11:51;;;;;;;78.00;42.20;;;;;;;5.16;61.18;100664.44;147755;1148;104546;-79
2021/03/26 03:15:02;;;;;;;83.27;44.95;;;;;;;5.16;61.21;100669.73;147727;1147;104537;-79
2021/03/26 03:18:11;;;;;;;82.78;43.28;;;;;;;5.11;61.01;100664.75;147721;1147;104995;-78
2021/03/26 03:21:21;;;;;;;83.37;44.42;;;;;;;5.13;61.42;100666.45;147747;1147;104476;-79
2021/03/26 03:24:29;;;;;;;88.17;44.85;;;;;;;5.18;61.41;100666.98;147794;1147;104524;-83
2021/03/26 03:27:39;;;;;;;84.05;42.75;;;;;;;5.25;61.20;100663.80;147722;1147;104541;-80
2021/03/26 03:30:50;;;;;;;79.10;40.70;;;;;;;5.33;61.22;100667.67;147708;1146;104486;-80
2021/03/26 03:34:02;;;;;;;78.63;41.30;;;;;;;5.41;61.51;100668.84;147744;1145;104591;-79
2021/03/26 03:37:16;;;;;;;81.53;42.25;;;;;;;5.48;61.63;100672.71;147760;1147;104476;-80
2021/03/26 03:40:26;;;;;;;84.13;44.57;;;;;;;5.55;61.60;100669.65;147261;1147;104550;-79
2021/03/26 03:43:36;;;;;;;83.72;45.15;;;;;;;5.64;61.93;100668.95;147618;1147;104538;-78
2021/03/26 03:46:48;;;;;;;79.50;42.88;;;;;;;5.68;61.70;100673.10;147644;1147;104541;-74
2021/03/26 03:50:17;;;;;;;79.35;43.98;;;;;;;5.70;61.78;100665.89;147923;1146;104543;-72
2021/03/26 03:53:26;;;;;;;89.53;47.43;;;;;;;5.69;61.70;100670.31;147756;1147;104470;-71
2021/03/26 03:56:41;;;;;;;93.62;49.10;;;;;;;5.70;61.99;100664.08;147663;1148;105142;-72
2021/03/26 03:59:50;;;;;;;82.62;44.23;;;;;;;5.72;62.04;100671.92;147425;1147;104502;-75
2021/03/26 04:03:06;;;;;;;78.90;41.85;;;;;;;5.72;62.24;100671.92;147483;1147;104590;-75
2021/03/26 04:06:16;;;;;;;82.40;43.52;;;;;;;5.70;61.91;100674.67;147689;1146;104557;-73
2021/03/26 04:09:23;;;;;;;79.53;43.50;;;;;;;5.73;62.21;100678.89;147671;1147;104511;-74
2021/03/26 04:12:36;;;;;;;80.57;44.27;;;;;;;5.71;62.28;100676.34;147820;1147;104575;-73
2021/03/26 04:15:52;;;;;;;88.65;45.70;;;;;;;5.72;61.77;100677.22;147691;1147;104460;-73
2021/03/26 04:19:06;;;;;;;79.42;44.53;;;;;;;5.75;62.36;100674.33;146993;1148;104450;-72
2021/03/26 04:22:40;;;;;;;90.67;45.80;;;;;;;5.78;61.91;100686.52;147522;1147;105060;-72
2021/03/26 04:26:09;;;;;;;82.50;42.83;;;;;;;5.83;61.94;100674.63;147859;1147;104528;-72
2021/03/26 04:29:42;;;;;;;76.75;41.85;;;;;;;5.93;62.22;100684.53;147774;1147;104723;-72
2021/03/26 04:32:48;;;;;;;83.55;44.98;;;;;;;5.97;62.52;100675.45;147765;1147;104615;-74
2021/03/26 04:35:52;;;;;;;80.97;45.25;;;;;;;6.00;62.12;100675.22;147659;1147;104538;-75
2021/03/26 04:39:11;;;;;;;93.62;53.87;;;;;;;6.01;62.45;100676.92;147589;1147;104883;-75
2021/03/26 04:42:22;;;;;;;89.30;49.33;;;;;;;6.02;62.33;100678.59;147616;1147;104541;-71
2021/03/26 04:45:32;;;;;;;86.17;46.00;;;;;;;6.02;61.97;100681.24;147754;1147;104812;-74
2021/03/26 04:49:00;;;;;;;82.78;44.85;;;;;;;6.03;62.12;100681.13;147312;1147;104512;-73
2021/03/26 04:52:15;;;;;;;89.00;47.20;;;;;;;6.05;62.68;100687.16;147731;1147;104480;-76
2021/03/26 04:55:28;;;;;;;82.42;46.53;;;;;;;6.06;62.79;100685.34;147448;1147;104541;-73
2021/03/26 04:58:37;;;;;;;90.38;48.63;;;;;;;6.09;62.08;100691.27;147718;1148;104452;-76
2021/03/26 05:02:02;;;;;;;94.65;49.90;;;;;;;6.14;62.44;100698.03;147801;1147;104679;-74
2021/03/26 05:05:07;;;;;;;90.20;47.78;;;;;;;6.14;62.54;100695.38;147752;1147;104538;-73
2021/03/26 05:08:28;;;;;;;347.10;155.17;;;;;;;6.16;62.75;100694.33;147705;1147;105113;-73
2021/03/26 05:11:54;;;;;;;621.70;296.97;;;;;;;6.18;62.43;100699.48;147625;1147;104467;-74
2021/03/26 05:15:03;;;;;;;235.60;96.60;;;;;;;6.17;61.98;100706.59;147465;1147;104488;-74
2021/03/26 05:18:13;;;;;;;218.10;98.60;;;;;;;6.22;62.74;100700.98;147777;1147;104601;-73
2021/03/26 05:21:22;;;;;;;492.00;265.92;;;;;;;6.29;62.64;100696.89;147460;1147;104519;-74
2021/03/26 05:25:05;;;;;;;170.00;87.00;;;;;;;6.41;62.99;100693.34;147262;1147;104461;-74
2021/03/26 05:28:31;;;;;;;291.00;190.28;;;;;;;6.53;62.15;100699.52;147411;1146;104566;-74
2021/03/26 05:31:56;;;;;;;121.27;68.77;;;;;;;6.60;62.43;100710.48;147743;1148;104528;-74
2021/03/26 05:35:35;;;;;;;103.22;58.02;;;;;;;6.72;62.57;100714.87;146722;1147;104604;-72
2021/03/26 05:39:14;;;;;;;163.57;96.15;;;;;;;6.78;63.19;100716.22;147620;1148;104463;-75
2021/03/26 05:42:50;;;;;;;132.93;78.83;;;;;;;6.78;62.60;100714.41;147611;1147;104473;-73
2021/03/26 05:46:15;;;;;;;131.12;82.57;;;;;;;6.80;62.50;100717.78;147707;1147;104608;-74
2021/03/26 05:49:58;;;;;;;113.57;65.52;;;;;;;6.82;61.95;100731.77;147500;1148;104482;-71
2021/03/26 05:53:24;;;;;;;350.45;241.97;;;;;;;6.85;62.08;100720.07;147323;1148;104730;-76
2021/03/26 05:57:13;;;;;;;182.00;103.83;;;;;;;6.86;63.22;100732.39;147313;1148;105481;-74
2021/03/26 06:00:54;;;;;;;131.33;77.13;;;;;;;6.86;63.30;100732.39;147532;1147;104540;-75
2021/03/26 06:04:36;;;;;;;108.03;61.33;;;;;;;6.92;63.35;100731.91;146945;1148;105014;-72
2021/03/26 06:08:36;;;;;;;125.42;75.95;;;;;;;6.96;62.31;100737.83;147668;1147;104544;-70
2021/03/26 06:12:14;;;;;;;109.48;66.07;;;;;;;7.01;62.26;100735.67;147231;1146;104653;-74
2021/03/26 06:16:23;;;;;;;116.23;70.97;;;;;;;7.04;63.08;100735.42;147719;1146;104489;-73
2021/03/26 06:20:03;;;;;;;112.05;61.58;;;;;;;7.04;63.49;100738.08;147725;1147;104549;-76
2021/03/26 06:23:57;;;;;;;172.65;88.03;;;;;;;7.15;62.66;100739.91;147197;1147;104879;-69
2021/03/26 06:27:16;;;;;;;225.65;120.47;;;;;;;7.30;63.43;100738.72;147105;1147;104514;-70
2021/03/26 06:30:30;;;;;;;144.87;78.65;;;;;;;7.40;62.93;100741.49;147621;1147;104463;-70
2021/03/26 06:34:17;;;;;;;110.10;59.20;;;;;;;7.48;62.99;100742.56;147525;1147;104546;-71
2021/03/26 06:37:54;;;;;;;144.28;73.65;;;;;;;7.58;62.32;100742.70;147153;1147;104470;-69
2021/03/26 06:41:08;;;;;;;140.30;69.00;;;;;;;7.64;62.76;100731.59;147116;1146;104562;-72
2021/03/26 06:44:41;;;;;;;108.72;63.85;;;;;;;7.69;62.32;100736.52;147475;1147;104523;-72
2021/03/26 06:47:58;;;;;;;98.55;56.23;;;;;;;7.74;62.45;100739.66;147611;1146;104613;-72
2021/03/26 06:51:19;;;;;;;126.70;73.37;;;;;;;7.80;62.49;100736.51;147367;1147;104467;-72
2021/03/26 06:54:43;;;;;;;167.13;93.55;;;;;;;7.83;62.14;100736.28;147862;1147;104530;-82
2021/03/26 06:58:36;;;;;;;147.57;81.60;;;;;;;7.86;61.81;100735.17;147712;1146;104467;-83
2021/03/26 07:01:59;;;;;;;130.52;78.45;;;;;;;7.92;61.75;100739.15;147160;1147;104599;-70
2021/03/26 07:05:26;;;;;;;411.62;250.93;;;;;;;7.98;62.37;100747.45;147683;1147;104580;-68
2021/03/26 07:08:54;;;;;;;167.85;93.40;;;;;;;8.02;62.14;100732.95;147604;1147;104896;-69
2021/03/26 07:12:11;;;;;;;123.37;75.47;;;;;;;8.10;62.03;100745.61;147619;1148;104447;-69
2021/03/26 07:15:19;;;;;;;230.30;155.70;;;;;;;8.14;62.10;100735.58;147580;1148;104505;-72
2021/03/26 07:18:49;;;;;;;129.53;83.80;;;;;;;8.14;62.27;100731.13;147651;1147;104466;-70
2021/03/26 07:22:13;;;;;;;100.00;60.35;;;;;;;8.19;62.47;100733.40;147620;1147;104549;-74
2021/03/26 07:25:28;;;;;;;84.70;50.78;;;;;;;8.22;61.66;100741.97;147458;1147;104895;-68
2021/03/26 07:28:38;;;;;;;93.97;55.65;;;;;;;8.31;62.39;100742.17;147406;1147;104539;-69
2021/03/26 07:31:48;;;;;;;88.25;53.52;;;;;;;8.39;62.41;100758.33;147603;1147;104483;-69
2021/03/26 07:35:22;;;;;;;87.45;51.28;;;;;;;8.47;61.94;100758.59;147407;1147;104570;-69
2021/03/26 07:38:52;;;;;;;84.37;49.35;;;;;;;8.60;61.96;100751.28;147190;1148;104617;-73
2021/03/26 07:42:20;;;;;;;125.35;72.03;;;;;;;8.72;62.32;100745.88;147418;1147;104738;-69
2021/03/26 07:45:49;;;;;;;90.55;50.20;;;;;;;8.83;62.00;100759.13;147804;1147;104482;-73
2021/03/26 07:49:24;;;;;;;84.30;48.55;;;;;;;8.97;61.74;100748.17;147555;1147;104451;-72
2021/03/26 07:52:34;;;;;;;81.47;47.70;;;;;;;9.15;61.83;100758.23;147461;1147;104726;-71
2021/03/26 07:55:41;;;;;;;84.60;48.78;;;;;;;9.29;61.60;100760.53;147286;1146;104614;-71
2021/03/26 07:59:31;;;;;;;78.62;46.80;;;;;;;9.44;61.34;100759.20;147707;1148;104560;-71
2021/03/26 08:02:56;;;;;;;100.05;59.98;;;;;;;9.66;61.44;100767.14;147051;1147;104547;-71
2021/03/26 08:06:14;;;;;;;113.30;69.85;;;;;;;9.83;61.59;100769.16;147703;1147;104448;-70
2021/03/26 08:09:31;;;;;;;130.82;79.10;;;;;;;9.97;60.97;100770.63;147687;1147;104467;-74
2021/03/26 08:12:49;;;;;;;114.57;70.40;;;;;;;10.11;60.98;100762.23;147579;1146;104646;-78
2021/03/26 08:16:30;;;;;;;100.97;62.73;;;;;;;10.26;60.67;100769.81;147655;1147;104552;-73
2021/03/26 08:19:52;;;;;;;96.60;60.03;;;;;;;10.46;61.03;100760.89;148896;1146;104572;-73
2021/03/26 08:23:24;;;;;;;105.20;65.20;;;;;;;10.64;61.21;100766.36;148010;1147;104400;-73
2021/03/26 08:26:47;;;;;;;104.58;63.78;;;;;;;10.82;60.25;100771.84;147783;1147;104470;-72
2021/03/26 08:30:02;;;;;;;229.87;122.20;;;;;;;10.96;59.78;100774.06;147938;1147;104630;-73
2021/03/26 08:33:17;;;;;;;238.03;132.75;;;;;;;11.03;60.00;100773.48;147856;1147;104524;-72
2021/03/26 08:36:37;;;;;;;162.35;90.87;;;;;;;11.07;59.84;100780.25;147760;1147;104551;-73
2021/03/26 08:39:46;;;;;;;939.70;588.22;;;;;;;11.14;60.20;100774.19;147569;1146;104689;-73
2021/03/26 08:42:51;;;;;;;750.03;449.40;;;;;;;11.26;60.12;100777.53;147767;1147;104452;-72
2021/03/26 08:46:00;;;;;;;524.80;290.23;;;;;;;11.40;60.31;100786.91;147340;1146;104634;-73
2021/03/26 08:49:15;;;;;;;611.02;383.43;;;;;;;11.54;59.43;100774.91;147578;1147;104546;-72
2021/03/26 08:52:35;;;;;;;469.75;289.63;;;;;;;11.72;59.92;100778.49;147685;1148;104550;-71
2021/03/26 08:55:45;;;;;;;393.20;242.95;;;;;;;11.85;59.50;100780.80;147739;1148;104553;-72
2021/03/26 08:59:13;;;;;;;306.87;194.60;;;;;;;12.01;58.74;100776.67;147770;1147;104524;-73
2021/03/26 09:02:50;;;;;;;431.57;285.73;;;;;;;12.23;59.30;100775.42;147848;1146;104454;-74
2021/03/26 09:06:11;;;;;;;261.57;154.68;;;;;;;12.39;58.86;100778.25;147402;1147;104464;-71
2021/03/26 09:09:32;;;;;;;149.07;88.35;;;;;;;12.54;58.73;100778.58;147640;1147;104568;-72
2021/03/26 09:12:58;;;;;;;98.42;61.98;;;;;;;12.63;58.71;100780.34;147797;1147;104543;-73
2021/03/26 09:16:07;;;;;;;94.05;59.20;;;;;;;12.69;58.14;100782.39;147794;1147;104502;-75
2021/03/26 09:19:17;;;;;;;80.65;50.98;;;;;;;12.68;57.92;100782.55;147453;1147;104598;-71
2021/03/26 09:22:52;;;;;;;87.50;57.73;;;;;;;12.65;57.95;100793.58;147656;1147;104835;-72
2021/03/26 09:25:59;;;;;;;185.35;116.00;;;;;;;12.65;58.37;100793.58;147484;1148;104540;-74
2021/03/26 09:29:09;;;;;;;118.13;77.08;;;;;;;12.70;58.27;100784.09;147515;1146;104545;-73
2021/03/26 09:32:19;;;;;;;114.20;71.30;;;;;;;12.77;57.89;100787.81;147710;1147;104550;-73
2021/03/26 09:35:27;;;;;;;231.10;137.97;;;;;;;12.88;57.88;100786.74;147692;1146;104454;-73
2021/03/26 09:38:37;;;;;;;147.15;92.60;;;;;;;13.00;57.94;100783.82;147760;1147;104531;-73
2021/03/26 09:41:47;;;;;;;112.17;73.65;;;;;;;13.09;57.69;100791.76;147788;1147;104595;-73
2021/03/26 09:45:01;;;;;;;88.87;55.58;;;;;;;13.27;58.05;100780.98;147744;1147;104473;-73
2021/03/26 09:49:00;;;;;;;92.20;58.42;;;;;;;13.46;57.94;100781.81;147764;1146;104583;-73
2021/03/26 09:52:17;;;;;;;110.33;72.47;;;;;;;13.63;57.01;100778.21;147160;1148;104550;-73
2021/03/26 09:55:27;;;;;;;133.60;87.78;;;;;;;13.75;57.65;100781.45;147799;1147;104445;-74
2021/03/26 09:58:35;;;;;;;87.23;54.83;;;;;;;13.88;57.23;100783.69;147767;1145;104467;-73
2021/03/26 10:01:44;;;;;;;83.15;54.33;;;;;;;13.94;57.36;100783.04;147753;1147;104538;-74
2021/03/26 10:04:59;;;;;;;124.67;87.05;;;;;;;14.01;56.44;100784.08;147491;1147;104550;-73
2021/03/26 10:08:10;;;;;;;208.65;145.92;;;;;;;14.04;55.95;100770.31;147645;1147;104739;-72
2021/03/26 10:11:17;;;;;;;73.00;49.50;;;;;;;14.10;56.41;100774.19;147741;1147;104547;-73
2021/03/26 10:14:25;;;;;;;159.95;117.30;;;;;;;14.18;55.97;100770.69;147737;1147;104535;-74
2021/03/26 10:17:44;;;;;;;123.65;87.12;;;;;;;14.22;55.47;100770.22;147832;1147;104582;-73
2021/03/26 10:20:51;;;;;;;68.45;46.28;;;;;;;14.27;55.45;100775.08;147731;1146;104457;-72
2021/03/26 10:24:06;;;;;;;58.30;40.33;;;;;;;14.29;56.02;100773.91;147611;1146;104463;-74
2021/03/26 10:27:18;;;;;;;57.20;38.88;;;;;;;14.29;55.64;100776.59;147652;1147;104543;-74
2021/03/26 10:30:28;;;;;;;51.90;35.60;;;;;;;14.23;55.07;100773.73;147324;1147;104912;-72
2021/03/26 10:33:34;;;;;;;49.13;33.55;;;;;;;14.11;54.38;100765.98;147668;1147;104444;-76
2021/03/26 10:36:50;;;;;;;59.90;39.27;;;;;;;14.04;54.77;100772.17;147480;1147;104543;-73
2021/03/26 10:39:59;;;;;;;50.45;33.63;;;;;;;13.94;54.19;100766.94;147466;1147;105033;-72
2021/03/26 10:43:10;;;;;;;55.40;35.80;;;;;;;13.91;54.67;100764.57;147528;1147;104607;-74
2021/03/26 10:46:16;;;;;;;58.70;38.60;;;;;;;13.90;53.87;100757.55;147407;1146;104607;-72
2021/03/26 10:49:26;;;;;;;52.80;34.53;;;;;;;13.86;53.97;100756.19;147562;1147;104457;-70
2021/03/26 10:52:36;;;;;;;67.72;43.92;;;;;;;13.84;53.69;100759.03;147638;1147;104550;-70
2021/03/26 10:55:49;;;;;;;52.25;34.20;;;;;;;13.87;52.71;100757.85;147740;1147;104806;-71
2021/03/26 10:59:01;;;;;;;76.60;48.80;;;;;;;13.84;52.67;100753.66;147614;1147;104468;-74
2021/03/26 11:02:38;;;;;;;52.35;35.63;;;;;;;13.85;53.25;100749.13;147701;1147;104452;-74
2021/03/26 11:05:48;;;;;;;47.25;31.52;;;;;;;13.86;52.31;100740.93;147717;1147;104435;-71
2021/03/26 11:08:56;;;;;;;45.83;30.93;;;;;;;13.90;53.33;100744.12;147653;1147;104465;-72
2021/03/26 11:12:05;;;;;;;58.58;39.83;;;;;;;13.95;52.40;100739.09;147750;1146;104717;-71
2021/03/26 11:15:15;;;;;;;55.43;37.23;;;;;;;13.98;52.40;100740.62;147517;1146;104477;-72
2021/03/26 11:18:22;;;;;;;42.98;28.15;;;;;;;14.00;52.59;100741.30;147488;1147;104539;-71
2021/03/26 11:21:34;;;;;;;36.80;25.17;;;;;;;14.01;52.43;100735.78;147598;1147;104550;-71
2021/03/26 11:24:42;;;;;;;41.10;27.40;;;;;;;14.06;51.86;100740.64;147385;1146;104547;-74
2021/03/26 11:27:49;;;;;;;44.20;29.00;;;;;;;14.11;51.82;100730.27;147522;1146;104767;-71
2021/03/26 11:30:59;;;;;;;38.53;25.80;;;;;;;14.27;51.05;100726.77;147722;1148;104466;-71
2021/03/26 11:34:33;;;;;;;38.48;25.77;;;;;;;14.50;50.89;100729.64;147431;1147;104531;-71
2021/03/26 11:37:38;;;;;;;64.22;42.78;;;;;;;14.78;50.53;100730.19;147590;1146;104444;-72
2021/03/26 11:40:46;;;;;;;47.07;31.47;;;;;;;14.94;50.64;100720.43;147639;1147;104570;-71
2021/03/26 11:43:54;;;;;;;64.53;43.23;;;;;;;15.01;50.00;100724.95;147756;1147;104537;-71
2021/03/26 11:47:04;;;;;;;41.75;28.02;;;;;;;15.04;49.15;100716.53;147678;1147;104478;-71
2021/03/26 11:50:23;;;;;;;80.12;53.65;;;;;;;15.06;49.61;100717.20;147612;1148;104552;-71
2021/03/26 11:53:37;;;;;;;63.48;42.23;;;;;;;15.20;49.34;100718.34;147635;1147;104535;-71
2021/03/26 11:56:47;;;;;;;44.23;29.00;;;;;;;15.37;49.66;100712.92;147349;1147;104467;-71
2021/03/26 12:00:03;;;;;;;36.60;22.85;;;;;;;15.47;48.39;100716.23;147737;1147;104601;-72
2021/03/26 12:03:19;;;;;;;33.75;22.25;;;;;;;15.50;48.96;100707.84;147293;1147;104467;-70
2021/03/26 12:06:31;;;;;;;44.65;27.80;;;;;;;15.63;49.68;100697.36;147593;1147;104447;-73
2021/03/26 12:09:38;;;;;;;35.50;22.90;;;;;;;15.79;48.31;100707.22;147529;1146;104476;-70
2021/03/26 12:12:49;;;;;;;35.28;22.90;;;;;;;15.91;48.55;100696.89;147534;1147;104455;-72
2021/03/26 12:15:59;;;;;;;37.73;23.60;;;;;;;16.01;48.15;100697.53;147446;1147;104551;-72
2021/03/26 12:19:05;;;;;;;37.15;23.47;;;;;;;16.06;47.86;100692.43;147215;1147;104449;-72
2021/03/26 12:22:21;;;;;;;32.53;20.37;;;;;;;16.23;48.36;100692.33;147193;1147;104540;-70
2021/03/26 12:25:29;;;;;;;34.90;21.77;;;;;;;16.44;48.02;100684.41;147472;1147;104485;-70
2021/03/26 12:29:04;;;;;;;30.17;20.25;;;;;;;16.63;47.41;100682.25;147731;1147;104473;-71
2021/03/26 12:32:20;;;;;;;35.03;21.65;;;;;;;16.83;47.81;100675.33;147835;1148;104551;-72
2021/03/26 12:35:30;;;;;;;35.88;20.80;;;;;;;16.92;47.61;100667.16;147373;1147;104570;-70
2021/03/26 12:38:42;;;;;;;33.10;22.05;;;;;;;17.02;47.66;100673.12;147285;1147;104467;-72
2021/03/26 12:41:49;;;;;;;34.38;20.82;;;;;;;17.04;46.19;100671.91;147418;1147;104473;-72
2021/03/26 12:44:59;;;;;;;31.60;21.40;;;;;;;16.97;46.48;100668.27;147768;1147;104470;-71
2021/03/26 12:48:09;;;;;;;31.57;20.77;;;;;;;16.94;46.36;100674.05;147290;1147;104681;-71
2021/03/26 12:51:23;;;;;;;30.90;21.73;;;;;;;16.88;46.73;100662.15;147823;1147;104458;-70
2021/03/26 12:54:33;;;;;;;32.40;20.48;;;;;;;16.77;46.40;100662.56;147626;1146;104541;-72
2021/03/26 12:57:46;;;;;;;34.57;20.93;;;;;;;16.69;45.87;100662.66;147718;1147;104579;-72
2021/03/26 13:00:56;;;;;;;31.17;21.23;;;;;;;16.62;46.57;100659.01;147760;1146;104519;-74
2021/03/26 13:04:04;;;;;;;32.63;20.72;;;;;;;16.59;46.17;100664.75;147663;1146;104604;-72
2021/03/26 13:07:28;;;;;;;34.07;22.47;;;;;;;16.45;44.64;100667.22;147419;1147;104883;-71
2021/03/26 13:10:48;;;;;;;31.07;21.90;;;;;;;16.33;45.71;100662.47;147704;1147;104583;-72
2021/03/26 13:14:04;;;;;;;32.90;22.15;;;;;;;16.22;45.80;100658.33;147763;1147;104570;-70
2021/03/26 13:17:18;;;;;;;32.13;22.20;;;;;;;16.14;45.21;100667.30;147854;1148;104476;-73
2021/03/26 13:20:21;;;;;;;35.40;23.17;;;;;;;16.06;44.59;100656.61;147581;1147;104620;-72
2021/03/26 13:23:31;;;;;;;35.30;22.93;;;;;;;15.98;45.04;100662.88;147666;1146;104458;-74
2021/03/26 13:26:37;;;;;;;65.37;24.52;;;;;;;15.92;44.93;100657.36;147452;1147;104467;-71
2021/03/26 13:29:47;;;;;;;45.30;21.30;;;;;;;15.80;44.31;100659.62;147749;1147;104512;-71
2021/03/26 13:33:28;;;;;;;53.75;21.10;;;;;;;15.75;44.46;100657.48;147762;1147;104538;-72
2021/03/26 13:36:37;;;;;;;38.50;20.10;;;;;;;15.68;45.16;100656.47;147888;1146;104493;-78
2021/03/26 13:39:45;;;;;;;34.87;21.10;;;;;;;15.62;44.51;100647.25;147880;1147;104557;-83
2021/03/26 13:42:53;;;;;;;34.73;21.02;;;;;;;15.58;43.88;100640.55;147568;1147;104554;-80
2021/03/26 13:46:01;;;;;;;29.55;19.87;;;;;;;15.56;44.44;100647.95;147895;1147;104459;-80
2021/03/26 13:49:15;;;;;;;39.03;20.97;;;;;;;15.53;44.34;100648.33;147825;1147;104583;-82
2021/03/26 13:52:28;;;;;;;32.53;20.40;;;;;;;15.50;43.17;100637.91;147581;1147;104751;-80
2021/03/26 13:55:35;;;;;;;31.97;19.85;;;;;;;15.47;43.93;100649.00;147891;1147;104483;-75
2021/03/26 13:58:48;;;;;;;32.98;21.23;;;;;;;15.44;43.41;100649.38;147561;1147;104444;-80
2021/03/26 14:01:55;;;;;;;33.70;21.20;;;;;;;15.41;44.35;100645.16;147664;1147;104525;-79
2021/03/26 14:05:17;;;;;;;37.20;21.87;;;;;;;15.36;43.99;100641.32;147827;1147;104547;-75
2021/03/26 14:08:28;;;;;;;32.53;21.12;;;;;;;15.33;43.96;100647.89;147756;1147;104560;-75
2021/03/26 14:11:38;;;;;;;34.67;21.35;;;;;;;15.34;44.38;100641.52;147758;1147;104544;-75
2021/03/26 14:14:47;;;;;;;38.85;24.12;;;;;;;15.31;44.45;100642.69;147694;1146;104553;-75
2021/03/26 14:18:02;;;;;;;39.03;24.32;;;;;;;15.25;44.01;100646.08;147585;1147;104543;-75
2021/03/26 14:21:37;;;;;;;35.13;22.77;;;;;;;15.20;44.64;100637.69;147489;1147;104519;-76
2021/03/26 14:25:02;;;;;;;39.13;24.47;;;;;;;15.11;44.61;100628.84;147771;1147;104603;-78
2021/03/26 14:28:12;;;;;;;37.80;24.30;;;;;;;15.06;44.39;100635.73;147757;1146;104543;-77